Terminal Aerodrome Forecast
Issued by NWS

Home | Current Version | Previous Version | Text Only | Print | Product List | Glossary On
Versions: 1 2 3 4 5 6 7 8 9 10 11 12 13 14 15 16 17 18 19
000
FTUS43 KIND 242326
TAFBMG
TAF
KBMG 242326Z 2500/2524 12003KT P6SM SCT020 BKN100
      TEMPO 2500/2502 BKN020
     FM250200 13006KT P6SM SCT100 SCT250
     FM250600 15008KT P6SM BKN070
     FM251200 18009KT P6SM BKN030
     FM251400 20010KT P6SM BKN015
     FM251900 23012G21KT P6SM BKN015
     FM252200 25011G20KT P6SM BKN050
     FM252300 25010KT P6SM SCT070
      AMD LTD TO CLD VIS AND WIND 2502/2514=

USA.gov is the U.S. government's official web portal to all federal, state and local government web resources and services.